createdAt,value
2022-11-05T00:01:24.847Z,97543.00
2022-11-05T00:04:07.524Z,97541.00
2022-11-05T00:06:49.798Z,97549.00
2022-11-05T00:09:35.411Z,97568.00
2022-11-05T00:12:19.728Z,97576.00
2022-11-05T00:15:02.147Z,97573.00
2022-11-05T00:17:31.964Z,97583.00
2022-11-05T00:20:02.159Z,97573.00
2022-11-05T00:22:44.421Z,97585.00
2022-11-05T00:25:17.710Z,97584.00
2022-11-05T00:27:48.859Z,97589.00
2022-11-05T00:30:21.057Z,97588.00
2022-11-05T00:32:52.501Z,97593.00
2022-11-05T00:35:24.085Z,97595.00
2022-11-05T00:37:56.068Z,97621.00
2022-11-05T00:40:28.520Z,97618.00
2022-11-05T00:43:11.031Z,97628.00
2022-11-05T00:45:41.244Z,97626.00
2022-11-05T00:48:24.713Z,97632.00
2022-11-05T00:50:54.796Z,97633.00
2022-11-05T00:53:24.645Z,97642.00
2022-11-05T00:55:57.236Z,97651.00
2022-11-05T00:58:27.459Z,97653.00
2022-11-05T01:00:58.807Z,97663.00
2022-11-05T01:03:30.558Z,97656.00
2022-11-05T01:06:02.196Z,97665.00
2022-11-05T01:08:32.029Z,97661.00
2022-11-05T01:11:12.220Z,97662.00
2022-11-05T01:13:42.753Z,97665.00
2022-11-05T01:16:13.562Z,97666.00
2022-11-05T01:18:43.401Z,97679.00
2022-11-05T01:21:14.741Z,97667.00
2022-11-05T01:23:44.652Z,97675.00
2022-11-05T01:26:17.111Z,97679.00
2022-11-05T01:28:47.081Z,97683.00
2022-11-05T01:31:17.032Z,97683.00
2022-11-05T01:33:46.954Z,97689.00
2022-11-05T01:36:17.171Z,97703.00
2022-11-05T01:38:47.287Z,97706.00
2022-11-05T01:41:19.756Z,97710.00
2022-11-05T01:43:52.472Z,97725.00
2022-11-05T01:46:25.354Z,97710.00
2022-11-05T01:49:01.771Z,97712.00
2022-11-05T01:51:33.056Z,97710.00
2022-11-05T01:54:05.504Z,97706.00
2022-11-05T01:56:40.704Z,97711.00
2022-11-05T01:59:13.325Z,97720.00
2022-11-05T02:01:43.403Z,97729.00
2022-11-05T02:04:15.061Z,97717.00
2022-11-05T02:06:46.474Z,97734.00
2022-11-05T02:09:19.757Z,97741.00
2022-11-05T02:11:53.189Z,97737.00
2022-11-05T02:14:23.141Z,97748.00
2022-11-05T02:16:56.442Z,97766.00
2022-11-05T02:19:58.336Z,97771.00
2022-11-05T02:22:45.195Z,97776.00
2022-11-05T02:25:43.008Z,97777.00
2022-11-05T02:28:35.421Z,97791.00
2022-11-05T02:31:11.766Z,97797.00
2022-11-05T02:33:45.846Z,97794.00
2022-11-05T02:36:28.667Z,97790.00
2022-11-05T02:39:08.676Z,97800.00
2022-11-05T02:41:44.403Z,97808.00
2022-11-05T02:44:22.091Z,97788.00
2022-11-05T02:46:58.492Z,97786.00
2022-11-05T02:49:35.034Z,97789.00
2022-11-05T02:52:08.094Z,97789.00
2022-11-05T02:54:40.063Z,97790.00
2022-11-05T02:57:10.163Z,97806.00
2022-11-05T02:59:39.998Z,97806.00
2022-11-05T03:02:12.591Z,97816.00
2022-11-05T03:04:42.591Z,97822.00
2022-11-05T03:07:25.625Z,97825.00
2022-11-05T03:10:16.656Z,97836.00
2022-11-05T03:12:53.919Z,97840.00
2022-11-05T03:15:31.882Z,97841.00
2022-11-05T03:18:11.587Z,97852.00
2022-11-05T03:20:45.728Z,97844.00
2022-11-05T03:23:20.176Z,97844.00
2022-11-05T03:25:52.859Z,97836.00
2022-11-05T03:28:26.011Z,97846.00
2022-11-05T03:30:58.192Z,97850.00
2022-11-05T03:33:32.990Z,97856.00
2022-11-05T03:36:06.002Z,97871.00
2022-11-05T03:38:38.253Z,97870.00
2022-11-05T03:41:12.281Z,97885.00
2022-11-05T03:43:44.914Z,97879.00
2022-11-05T03:46:18.692Z,97874.00
2022-11-05T03:48:53.415Z,97889.00
2022-11-05T03:51:30.180Z,97888.00
2022-11-05T03:54:01.549Z,97892.00
2022-11-05T03:56:35.428Z,97901.00
2022-11-05T03:59:06.347Z,97904.00
2022-11-05T04:01:36.363Z,97897.00
2022-11-05T04:04:09.704Z,97910.00
2022-11-05T04:06:51.955Z,97917.00
2022-11-05T04:09:34.368Z,97917.00
2022-11-05T04:12:16.640Z,97912.00
2022-11-05T04:14:46.575Z,97918.00
2022-11-05T04:17:13.833Z,97921.00
2022-11-05T04:19:59.638Z,97932.00
2022-11-05T04:22:43.604Z,97927.00
2022-11-05T04:25:13.968Z,97931.00
2022-11-05T04:27:43.829Z,97928.00
2022-11-05T04:30:20.924Z,97934.00
2022-11-05T04:33:01.704Z,97931.00
2022-11-05T04:35:35.719Z,97909.00
2022-11-05T04:38:06.518Z,97931.00
2022-11-05T04:40:36.602Z,97931.00
2022-11-05T04:43:13.638Z,97929.00
2022-11-05T04:45:45.235Z,97943.00
2022-11-05T04:48:18.667Z,97943.00
2022-11-05T04:50:51.159Z,97955.00
2022-11-05T04:53:21.004Z,97950.00
2022-11-05T04:55:50.844Z,97952.00
2022-11-05T04:58:20.738Z,97948.00
2022-11-05T05:00:52.660Z,97945.00
2022-11-05T05:03:22.625Z,97951.00
2022-11-05T05:05:58.253Z,97946.00
2022-11-05T05:08:32.349Z,97940.00
2022-11-05T05:11:04.976Z,97940.00
2022-11-05T05:13:34.964Z,97943.00
2022-11-05T05:16:08.401Z,97942.00
2022-11-05T05:18:43.531Z,97947.00
2022-11-05T05:21:31.044Z,97952.00
2022-11-05T05:24:00.873Z,97958.00
2022-11-05T05:26:30.941Z,97963.00
2022-11-05T05:29:00.788Z,97969.00
2022-11-05T05:31:30.816Z,97967.00
2022-11-05T05:34:00.723Z,97973.00
2022-11-05T05:36:33.599Z,97975.00
2022-11-05T05:39:03.453Z,97992.00
2022-11-05T05:41:33.260Z,97991.00
2022-11-05T05:44:03.206Z,98001.00
2022-11-05T05:46:33.060Z,97993.00
2022-11-05T05:49:05.524Z,98002.00
2022-11-05T05:51:42.113Z,98002.00
2022-11-05T05:54:13.558Z,98012.00
2022-11-05T05:56:43.981Z,98007.00
2022-11-05T05:59:14.137Z,98016.00
2022-11-05T06:01:44.105Z,98017.00
2022-11-05T06:04:14.206Z,98026.00
2022-11-05T06:06:47.668Z,98021.00
2022-11-05T06:09:18.214Z,98022.00
2022-11-05T06:11:48.062Z,98038.00
2022-11-05T06:14:17.934Z,98035.00
2022-11-05T06:16:47.805Z,98041.00
2022-11-05T06:19:17.745Z,98051.00
2022-11-05T06:21:50.199Z,98059.00
2022-11-05T06:24:20.149Z,98056.00
2022-11-05T06:26:49.975Z,98065.00
2022-11-05T06:29:19.818Z,98068.00
2022-11-05T06:31:49.709Z,98072.00
2022-11-05T06:34:19.630Z,98079.00
2022-11-05T06:36:52.076Z,98089.00
2022-11-05T06:39:21.922Z,98078.00
2022-11-05T06:42:16.735Z,98083.00
2022-11-05T06:44:41.949Z,98089.00
2022-11-05T06:47:11.812Z,98095.00
2022-11-05T06:49:41.742Z,98085.00
2022-11-05T06:52:14.432Z,98094.00
2022-11-05T06:54:45.302Z,98102.00
2022-11-05T06:57:15.910Z,98120.00
2022-11-05T06:59:45.740Z,98110.00
2022-11-05T07:02:18.134Z,98120.00
2022-11-05T07:04:48.088Z,98128.00
2022-11-05T07:07:20.516Z,98141.00
2022-11-05T07:09:50.373Z,98132.00
2022-11-05T07:12:20.229Z,98146.00
2022-11-05T07:14:50.096Z,98154.00
2022-11-05T07:17:20.743Z,98147.00
2022-11-05T07:19:50.848Z,98152.00
2022-11-05T07:22:23.309Z,98163.00
2022-11-05T07:24:53.189Z,98169.00
2022-11-05T07:27:23.157Z,98169.00
2022-11-05T07:29:53.005Z,98169.00
2022-11-05T07:32:22.889Z,98182.00
2022-11-05T07:34:52.770Z,98186.00
2022-11-05T07:37:25.363Z,98178.00
2022-11-05T07:39:55.212Z,98176.00
2022-11-05T07:42:25.177Z,98180.00
2022-11-05T07:44:55.008Z,98178.00
2022-11-05T07:47:24.874Z,98174.00
2022-11-05T07:49:54.728Z,98189.00
2022-11-05T07:52:27.351Z,98188.00
2022-11-05T07:54:57.198Z,98193.00
2022-11-05T07:57:27.042Z,98189.00
2022-11-05T07:59:56.940Z,98192.00
2022-11-05T08:02:26.966Z,98193.00
2022-11-05T08:04:56.999Z,98184.00
2022-11-05T08:07:29.512Z,98187.00
2022-11-05T08:09:59.348Z,98196.00
2022-11-05T08:12:29.174Z,98197.00
2022-11-05T08:14:59.106Z,98203.00
2022-11-05T08:17:28.965Z,98218.00
2022-11-05T08:19:58.905Z,98214.00
2022-11-05T08:22:31.428Z,98220.00
2022-11-05T08:25:05.669Z,98234.00
2022-11-05T08:27:36.818Z,98235.00
2022-11-05T08:30:07.720Z,98235.00
2022-11-05T08:32:38.273Z,98233.00
2022-11-05T08:35:09.253Z,98240.00
2022-11-05T08:37:41.731Z,98244.00
2022-11-05T08:40:12.793Z,98255.00
2022-11-05T08:42:42.687Z,98255.00
2022-11-05T08:45:13.239Z,98253.00
2022-11-05T08:47:43.149Z,98259.00
2022-11-05T08:50:13.342Z,98263.00
2022-11-05T08:52:45.969Z,98268.00
2022-11-05T08:55:18.963Z,98282.00
2022-11-05T08:57:49.152Z,98283.00
2022-11-05T09:00:19.632Z,98290.00
2022-11-05T09:02:49.484Z,98298.00
2022-11-05T09:05:19.504Z,98301.00
2022-11-05T09:07:56.484Z,98305.00
2022-11-05T09:10:29.496Z,98312.00
2022-11-05T09:13:01.820Z,98306.00
2022-11-05T09:15:31.756Z,98308.00
2022-11-05T09:18:02.218Z,98315.00
2022-11-05T09:20:32.094Z,98309.00
2022-11-05T09:23:04.639Z,98305.00
2022-11-05T09:25:36.127Z,98301.00
2022-11-05T09:28:15.899Z,98303.00
2022-11-05T09:30:48.199Z,98304.00
2022-11-05T09:33:19.148Z,98305.00
2022-11-05T09:35:49.082Z,98302.00
2022-11-05T09:38:22.016Z,98297.00
2022-11-05T09:40:57.921Z,98310.00
2022-11-05T09:43:32.211Z,98317.00
2022-11-05T09:46:07.296Z,98318.00
2022-11-05T09:48:37.360Z,98315.00
2022-11-05T09:51:08.389Z,98313.00
2022-11-05T09:53:43.104Z,98312.00
2022-11-05T09:56:23.206Z,98321.00
2022-11-05T09:58:56.164Z,98325.00
2022-11-05T10:01:30.331Z,98322.00
2022-11-05T10:04:02.640Z,98333.00
2022-11-05T10:06:32.542Z,98331.00
2022-11-05T10:09:10.087Z,98335.00
2022-11-05T10:11:43.699Z,98335.00
2022-11-05T10:14:17.478Z,98339.00
2022-11-05T10:16:51.836Z,98349.00
2022-11-05T10:19:24.916Z,98342.00
2022-11-05T10:22:06.649Z,98348.00
2022-11-05T10:24:39.922Z,98333.00
2022-11-05T10:27:09.825Z,98346.00
2022-11-05T10:29:39.804Z,98343.00
2022-11-05T10:32:11.201Z,98347.00
2022-11-05T10:34:43.574Z,98352.00
2022-11-05T10:37:13.728Z,98353.00
2022-11-05T10:39:46.198Z,98350.00
2022-11-05T10:42:30.190Z,98343.00
2022-11-05T10:45:04.816Z,98350.00
2022-11-05T10:47:54.925Z,98350.00
2022-11-05T10:50:28.150Z,98373.00
2022-11-05T10:53:01.053Z,98375.00
2022-11-05T10:55:36.271Z,98369.00
2022-11-05T10:58:16.896Z,98375.00
2022-11-05T11:00:48.557Z,98372.00
2022-11-05T11:03:37.228Z,98374.00
2022-11-05T11:06:09.181Z,98375.00
2022-11-05T11:08:39.621Z,98384.00
2022-11-05T11:11:15.147Z,98378.00
2022-11-05T11:13:56.009Z,98374.00
2022-11-05T11:16:27.331Z,98366.00
2022-11-05T11:18:59.455Z,98386.00
2022-11-05T11:21:30.292Z,98383.00
2022-11-05T11:24:02.535Z,98389.00
2022-11-05T11:26:37.078Z,98393.00
2022-11-05T11:29:11.092Z,98395.00
2022-11-05T11:31:41.810Z,98393.00
2022-11-05T11:34:17.057Z,98394.00
2022-11-05T11:36:48.338Z,98396.00
2022-11-05T11:39:20.357Z,98404.00
2022-11-05T11:41:54.996Z,98404.00
2022-11-05T11:44:27.504Z,98405.00
2022-11-05T11:47:01.287Z,98407.00
2022-11-05T11:49:36.173Z,98413.00
2022-11-05T11:52:08.290Z,98411.00
2022-11-05T11:54:38.159Z,98405.00
2022-11-05T11:57:23.875Z,98407.00
2022-11-05T12:00:08.253Z,98413.00
2022-11-05T12:03:12.187Z,98407.00
2022-11-05T12:05:49.246Z,98416.00
2022-11-05T12:08:34.384Z,98415.00
2022-11-05T12:11:07.276Z,98412.00
2022-11-05T12:13:57.928Z,98409.00
2022-11-05T12:16:50.665Z,98415.00
2022-11-05T12:19:30.908Z,98416.00
2022-11-05T12:22:06.678Z,98415.00
2022-11-05T12:24:53.468Z,98418.00
2022-11-05T12:27:35.999Z,98421.00
2022-11-05T12:30:12.448Z,98425.00
2022-11-05T12:33:05.157Z,98426.00
2022-11-05T12:35:48.206Z,98426.00
2022-11-05T12:38:30.309Z,98425.00
2022-11-05T12:41:08.649Z,98427.00
2022-11-05T12:43:46.629Z,98428.00
2022-11-05T12:46:28.273Z,98429.00
2022-11-05T12:49:16.317Z,98425.00
2022-11-05T12:51:57.575Z,98425.00
2022-11-05T12:54:39.508Z,98436.00
2022-11-05T12:57:13.999Z,98436.00
2022-11-05T12:59:52.669Z,98432.00
2022-11-05T13:02:29.703Z,98446.00
2022-11-05T13:05:04.240Z,98440.00
2022-11-05T13:07:37.571Z,98442.00
2022-11-05T13:10:12.991Z,98451.00
2022-11-05T13:12:44.500Z,98454.00
2022-11-05T13:15:24.167Z,98447.00
2022-11-05T13:18:00.000Z,98443.00
2022-11-05T13:20:32.285Z,98456.00
2022-11-05T13:23:07.280Z,98446.00
2022-11-05T13:25:41.100Z,98459.00
2022-11-05T13:28:20.253Z,98465.00
2022-11-05T13:30:59.167Z,98456.00
2022-11-05T13:33:35.016Z,98470.00
2022-11-05T13:36:21.010Z,98467.00
2022-11-05T13:39:09.354Z,98465.00
2022-11-05T13:41:56.542Z,98477.00
2022-11-05T13:44:57.587Z,98482.00
2022-11-05T13:47:52.322Z,98492.00
2022-11-05T13:50:36.582Z,98492.00
2022-11-05T13:53:23.489Z,98492.00
2022-11-05T13:55:59.603Z,98489.00
2022-11-05T13:58:45.316Z,98502.00
2022-11-05T14:01:22.969Z,98495.00
2022-11-05T14:03:55.056Z,98501.00
2022-11-05T14:06:32.748Z,98503.00
2022-11-05T14:09:04.869Z,98506.00
2022-11-05T14:11:36.224Z,98507.00
2022-11-05T14:14:08.645Z,98510.00
2022-11-05T14:16:54.437Z,98514.00
2022-11-05T14:19:51.947Z,98511.00
2022-11-05T14:22:41.325Z,98525.00
2022-11-05T14:25:41.381Z,98525.00
2022-11-05T14:28:41.102Z,98525.00
2022-11-05T14:31:47.330Z,98529.00
2022-11-05T14:34:26.817Z,98528.00
2022-11-05T14:37:21.094Z,98536.00
2022-11-05T14:39:54.187Z,98544.00
2022-11-05T14:42:27.777Z,98548.00
2022-11-05T14:45:00.683Z,98547.00
2022-11-05T14:47:33.211Z,98553.00
2022-11-05T14:50:06.968Z,98543.00
2022-11-05T14:52:37.007Z,98553.00
2022-11-05T14:55:16.393Z,98547.00
2022-11-05T14:58:08.566Z,98547.00
2022-11-05T15:00:45.234Z,98551.00
2022-11-05T15:03:47.159Z,98554.00
2022-11-05T15:06:27.403Z,98560.00
2022-11-05T15:09:08.440Z,98559.00
2022-11-05T15:11:43.494Z,98559.00
2022-11-05T15:14:22.885Z,98573.00
2022-11-05T15:16:55.668Z,98570.00
2022-11-05T15:19:32.085Z,98569.00
2022-11-05T15:22:05.420Z,98579.00
2022-11-05T15:24:37.620Z,98587.00
2022-11-05T15:27:15.475Z,98583.00
2022-11-05T15:29:45.965Z,98592.00
2022-11-05T15:32:20.179Z,98587.00
2022-11-05T15:34:57.302Z,98589.00
2022-11-05T15:37:28.658Z,98600.00
2022-11-05T15:39:58.781Z,98599.00
2022-11-05T15:42:31.269Z,98600.00
2022-11-05T15:45:02.915Z,98610.00
2022-11-05T15:47:34.312Z,98606.00
2022-11-05T15:50:14.032Z,98612.00
2022-11-05T15:52:53.471Z,98616.00
2022-11-05T15:55:25.710Z,98618.00
2022-11-05T15:58:01.764Z,98618.00
2022-11-05T16:00:34.074Z,98629.00
2022-11-05T16:03:08.224Z,98629.00
2022-11-05T16:05:43.421Z,98637.00
2022-11-05T16:08:19.269Z,98629.00
2022-11-05T16:10:51.894Z,98625.00
2022-11-05T16:13:39.009Z,98629.00
2022-11-05T16:16:24.500Z,98616.00
2022-11-05T16:18:54.436Z,98629.00
2022-11-05T16:21:25.472Z,98630.00
2022-11-05T16:23:57.608Z,98626.00
2022-11-05T16:29:30.577Z,98630.00
2022-11-05T16:32:01.902Z,98637.00
2022-11-05T16:34:35.599Z,98636.00
2022-11-05T16:37:06.535Z,98645.00
2022-11-05T16:39:37.076Z,98638.00
2022-11-05T16:42:38.013Z,98637.00
2022-11-05T16:45:14.935Z,98645.00
2022-11-05T16:47:46.125Z,98638.00
2022-11-05T16:50:19.262Z,98642.00
2022-11-05T16:52:49.771Z,98650.00
2022-11-05T16:55:20.253Z,98656.00
2022-11-05T16:57:52.140Z,98663.00
2022-11-05T17:00:25.424Z,98665.00
2022-11-05T17:02:55.984Z,98656.00
2022-11-05T17:05:28.102Z,98657.00
2022-11-05T17:07:58.188Z,98664.00
2022-11-05T17:10:28.961Z,98653.00
2022-11-05T17:12:58.846Z,98666.00
2022-11-05T17:15:35.829Z,98660.00
2022-11-05T17:18:07.214Z,98663.00
2022-11-05T17:20:41.077Z,98660.00
2022-11-05T17:23:12.480Z,98668.00
2022-11-05T17:25:43.052Z,98663.00
2022-11-05T17:28:13.320Z,98670.00
2022-11-05T17:30:52.336Z,98681.00
2022-11-05T17:33:23.140Z,98672.00
2022-11-05T17:35:53.405Z,98692.00
2022-11-05T17:38:24.858Z,98682.00
2022-11-05T17:40:55.759Z,98685.00
2022-11-05T17:43:25.644Z,98681.00
2022-11-05T17:46:04.095Z,98692.00
2022-11-05T17:48:34.426Z,98692.00
2022-11-05T17:51:04.284Z,98687.00
2022-11-05T17:53:34.692Z,98693.00
2022-11-05T17:56:04.675Z,98682.00
2022-11-05T17:58:34.517Z,98692.00
2022-11-05T18:01:07.085Z,98694.00
2022-11-05T18:03:37.273Z,98694.00
2022-11-05T18:06:08.857Z,98691.00
2022-11-05T18:08:38.712Z,98690.00
2022-11-05T18:11:09.179Z,98695.00
2022-11-05T18:13:39.033Z,98697.00
2022-11-05T18:16:11.797Z,98697.00
2022-11-05T18:18:41.793Z,98687.00
2022-11-05T18:21:14.249Z,98697.00
2022-11-05T18:23:44.101Z,98703.00
2022-11-05T18:26:14.567Z,98723.00
2022-11-05T18:28:44.725Z,98721.00
2022-11-05T18:31:18.680Z,98716.00
2022-11-05T18:33:48.711Z,98720.00
2022-11-05T18:36:22.416Z,98730.00
2022-11-05T18:38:53.099Z,98731.00
2022-11-05T18:41:24.204Z,98732.00
2022-11-05T18:43:54.247Z,98738.00
2022-11-05T18:46:55.969Z,98742.00
2022-11-05T18:49:16.690Z,98752.00
2022-11-05T18:51:47.086Z,98761.00
2022-11-05T18:54:17.000Z,98754.00
2022-11-05T18:56:47.696Z,98758.00
2022-11-05T18:59:36.837Z,98769.00
2022-11-05T19:02:12.009Z,98759.00
2022-11-05T19:04:55.315Z,98758.00
2022-11-05T19:07:32.059Z,98766.00
2022-11-05T19:10:01.902Z,98768.00
2022-11-05T19:12:31.792Z,98773.00
2022-11-05T19:15:03.052Z,98770.00
2022-11-05T19:17:36.302Z,98774.00
2022-11-05T19:20:07.492Z,98783.00
2022-11-05T19:22:37.322Z,98777.00
2022-11-05T19:25:08.728Z,98781.00
2022-11-05T19:27:39.414Z,98778.00
2022-11-05T19:30:10.260Z,98777.00
2022-11-05T19:32:42.693Z,98767.00
2022-11-05T19:35:12.706Z,98771.00
2022-11-05T19:37:42.562Z,98774.00
2022-11-05T19:40:13.983Z,98787.00
2022-11-05T19:42:44.042Z,98787.00
2022-11-05T19:45:43.011Z,98792.00
2022-11-05T19:48:07.171Z,98792.00
2022-11-05T19:50:38.377Z,98785.00
2022-11-05T19:53:08.217Z,98796.00
2022-11-05T19:55:41.948Z,98796.00
2022-11-05T19:58:12.676Z,98791.00
2022-11-05T20:00:42.810Z,98798.00
2022-11-05T20:03:16.148Z,98793.00
2022-11-05T20:05:46.178Z,98794.00
2022-11-05T20:08:16.097Z,98797.00
2022-11-05T20:10:46.440Z,98799.00
2022-11-05T20:13:19.831Z,98810.00
2022-11-05T20:15:50.475Z,98810.00
2022-11-05T20:18:22.952Z,98805.00
2022-11-05T20:21:03.755Z,98797.00
2022-11-05T20:23:34.142Z,98804.00
2022-11-05T20:26:04.069Z,98803.00
2022-11-05T20:28:34.964Z,98812.00
2022-11-05T20:31:09.675Z,98822.00
2022-11-05T20:33:43.252Z,98816.00
2022-11-05T20:36:15.447Z,98821.00
2022-11-05T20:38:45.795Z,98813.00
2022-11-05T20:41:16.127Z,98821.00
2022-11-05T20:43:46.948Z,98824.00
2022-11-05T20:46:18.508Z,98813.00
2022-11-05T20:48:51.605Z,98824.00
2022-11-05T20:51:23.305Z,98830.00
2022-11-05T20:53:57.330Z,98827.00
2022-11-05T20:56:31.044Z,98824.00
2022-11-05T20:59:02.084Z,98824.00
2022-11-05T21:01:33.384Z,98826.00
2022-11-05T21:04:06.853Z,98828.00
2022-11-05T21:06:37.229Z,98806.00
2022-11-05T21:09:07.697Z,98817.00
2022-11-05T21:11:59.223Z,98816.00
2022-11-05T21:14:29.084Z,98817.00
2022-11-05T21:16:58.997Z,98816.00
2022-11-05T21:19:33.540Z,98822.00
2022-11-05T21:22:03.657Z,98819.00
2022-11-05T21:24:35.136Z,98818.00
2022-11-05T21:27:05.011Z,98821.00
2022-11-05T21:29:34.954Z,98826.00
2022-11-05T21:32:04.966Z,98827.00
2022-11-05T21:34:37.437Z,98831.00
2022-11-05T21:37:07.896Z,98828.00
2022-11-05T21:39:37.835Z,98825.00
2022-11-05T21:42:07.763Z,98830.00
2022-11-05T21:44:37.640Z,98829.00
2022-11-05T21:47:09.673Z,98817.00
2022-11-05T21:49:42.118Z,98820.00
2022-11-05T21:52:26.444Z,98817.00
2022-11-05T21:55:08.702Z,98818.00
2022-11-05T21:57:56.580Z,98816.00
2022-11-05T22:00:26.856Z,98813.00
2022-11-05T22:03:00.102Z,98816.00
2022-11-05T22:05:32.776Z,98814.00
2022-11-05T22:08:03.220Z,98822.00
2022-11-05T22:10:33.072Z,98818.00
2022-11-05T22:13:03.925Z,98809.00
2022-11-05T22:15:33.782Z,98807.00
2022-11-05T22:18:03.747Z,98808.00
2022-11-05T22:20:36.220Z,98821.00
2022-11-05T22:23:10.902Z,98816.00
2022-11-05T22:25:41.892Z,98816.00
2022-11-05T22:28:12.142Z,98814.00
2022-11-05T22:30:42.371Z,98819.00
2022-11-05T22:33:12.416Z,98818.00
2022-11-05T22:35:45.138Z,98821.00
2022-11-05T22:38:15.266Z,98820.00
2022-11-05T22:40:45.362Z,98822.00
2022-11-05T22:43:15.231Z,98825.00
2022-11-05T22:45:45.688Z,98830.00
2022-11-05T22:48:16.077Z,98827.00
2022-11-05T22:50:48.734Z,98832.00
2022-11-05T22:53:18.686Z,98840.00
2022-11-05T22:55:48.927Z,98837.00
2022-11-05T22:58:18.788Z,98835.00
2022-11-05T23:00:48.684Z,98836.00
2022-11-05T23:03:18.572Z,98838.00
2022-11-05T23:05:59.491Z,98838.00
2022-11-05T23:08:41.828Z,98832.00
2022-11-05T23:11:30.034Z,98837.00
2022-11-05T23:13:59.938Z,98836.00
2022-11-05T23:16:42.345Z,98821.00
2022-11-05T23:19:25.216Z,98831.00
2022-11-05T23:22:10.069Z,98827.00
2022-11-05T23:24:40.128Z,98826.00
2022-11-05T23:27:10.036Z,98822.00
2022-11-05T23:29:40.150Z,98826.00
2022-11-05T23:32:22.420Z,98822.00
2022-11-05T23:34:52.279Z,98824.00
2022-11-05T23:37:38.622Z,98825.00
2022-11-05T23:40:11.213Z,98833.00
2022-11-05T23:42:53.871Z,98828.00
2022-11-05T23:45:36.479Z,98830.00
2022-11-05T23:48:18.983Z,98831.00
2022-11-05T23:50:51.142Z,98825.00
2022-11-05T23:53:23.798Z,98822.00
2022-11-05T23:55:54.144Z,98837.00
2022-11-05T23:58:23.997Z,98834.00
